Time;durP1;ratioP1;P1;durP2;ratioP2;P2;SDS_P1;SDS_P2;PMS_P1;PMS_P2;Temp;Humidity;BMP_temperature;BMP_pressure;BME280_temperature;BME280_humidity;BME280_pressure;Samples;Min_cycle;Max_cycle;Signal;HPM_P1;HPM_P2
2021/08/30 00:01:25;;;;;;;;;;;;;;;19.57;68.10;101829.47;5077447;28;815;-57
2021/08/30 00:03:50;;;;;;;;;;;;;;;19.57;68.20;101831.34;5077688;28;1957;-59
2021/08/30 00:06:15;;;;;;;;;;;;;;;19.57;67.91;101828.63;5077147;28;926;-57
2021/08/30 00:08:40;;;;;;;;;;;;;;;19.57;67.99;101831.34;5076967;28;885;-58
2021/08/30 00:11:05;;;;;;;;;;;;;;;19.56;68.83;101833.19;5076730;28;1091;-58
2021/08/30 00:13:30;;;;;;;;;;;;;;;19.55;68.09;101827.91;5066477;28;1863;-58
2021/08/30 00:15:56;;;;;;;;;;;;;;;19.54;68.01;101829.75;5056872;28;1057;-58
2021/08/30 00:18:21;;;;;;;;;;;;;;;19.54;68.43;101835.16;5056634;28;1105;-59
2021/08/30 00:20:46;;;;;;;;;;;;;;;19.54;68.75;101832.44;5056618;28;1013;-58
2021/08/30 00:23:12;;;;;;;;;;;;;;;19.54;68.82;101824.34;5056630;28;1986;-58
2021/08/30 00:25:37;;;;;;;;;;;;;;;19.54;68.79;101829.75;5056539;28;869;-57
2021/08/30 00:28:02;;;;;;;;;;;;;;;19.54;68.40;101831.59;5056403;28;799;-58
2021/08/30 00:30:27;;;;;;;;;;;;;;;19.53;68.84;101828.03;5057721;28;1843;-57
2021/08/30 00:32:52;;;;;;;;;;;;;;;19.53;68.63;101832.59;5076517;28;841;-57
2021/08/30 00:35:17;;;;;;;;;;;;;;;19.53;68.42;101832.59;5075258;28;878;-58
2021/08/30 00:37:42;;;;;;;;;;;;;;;19.50;68.44;101833.72;5076748;28;1009;-56
2021/08/30 00:40:07;;;;;;;;;;;;;;;19.51;68.86;101821.06;5077064;28;887;-58
2021/08/30 00:42:32;;;;;;;;;;;;;;;19.52;68.17;101833.59;5077327;28;925;-58
2021/08/30 00:45:00;;;;;;;;;;;;;;;19.51;68.06;101838.16;5076957;28;1893;-57
2021/08/30 00:47:25;;;;;;;;;;;;;;;19.51;68.56;101832.75;5077337;28;775;-60
2021/08/30 00:49:50;;;;;;;;;;;;;;;19.51;68.73;101843.56;5065775;28;1884;-59
2021/08/30 00:52:15;;;;;;;;;;;;;;;19.51;67.91;101834.59;5056704;28;1965;-60
2021/08/30 00:54:41;;;;;;;;;;;;;;;19.50;67.92;101832.88;5056486;28;1029;-60
2021/08/30 00:57:06;;;;;;;;;;;;;;;19.50;68.23;101838.28;5056978;28;1016;-60
2021/08/30 00:59:31;;;;;;;;;;;;;;;19.49;68.63;101840.09;5056584;28;951;-60
2021/08/30 01:01:56;;;;;;;;;;;;;;;19.49;68.73;101834.69;5056812;28;1009;-60
2021/08/30 01:04:21;;;;;;;;;;;;;;;19.48;68.58;101835.69;5056724;28;1885;-60
2021/08/30 01:06:46;;;;;;;;;;;;;;;19.49;68.24;101834.69;5057540;28;1840;-60
2021/08/30 01:09:12;;;;;;;;;;;;;;;19.48;68.72;101832.97;5075213;28;1076;-60
2021/08/30 01:11:37;;;;;;;;;;;;;;;19.47;68.36;101844.78;5076591;28;1117;-59
2021/08/30 01:14:02;;;;;;;;;;;;;;;19.47;68.93;101846.63;5076718;28;1008;-60
2021/08/30 01:16:27;;;;;;;;;;;;;;;19.47;68.46;101839.38;5076402;28;1820;-59
2021/08/30 01:18:52;;;;;;;;;;;;;;;19.47;68.44;101841.22;5076512;28;1071;-58
2021/08/30 01:21:17;;;;;;;;;;;;;;;19.47;68.57;101842.06;5071648;28;1781;-58
2021/08/30 01:23:43;;;;;;;;;;;;;;;19.47;68.46;101844.78;5056352;28;1910;-60
2021/08/30 01:26:08;;;;;;;;;;;;;;;19.46;68.17;101844.91;5056125;28;811;-59
2021/08/30 01:28:33;;;;;;;;;;;;;;;19.46;68.54;101845.75;5074684;28;1856;-58
2021/08/30 01:30:58;;;;;;;;;;;;;;;19.46;69.05;101850.31;5076177;28;818;-59
2021/08/30 01:33:24;;;;;;;;;;;;;;;19.46;68.21;101855.72;5076544;28;1008;-59
2021/08/30 01:35:49;;;;;;;;;;;;;;;19.44;68.64;101858.56;5075783;28;847;-55
2021/08/30 01:38:14;;;;;;;;;;;;;;;19.43;68.22;101851.44;5063809;28;1731;-53
2021/08/30 01:40:39;;;;;;;;;;;;;;;19.43;68.16;101846.03;5056123;28;873;-56
2021/08/30 01:43:04;;;;;;;;;;;;;;;19.44;68.33;101845.03;5055899;28;1890;-56
2021/08/30 01:45:29;;;;;;;;;;;;;;;19.43;68.49;101844.19;5056061;28;873;-57
2021/08/30 01:47:54;;;;;;;;;;;;;;;19.44;68.70;101847.75;5069580;28;1771;-57
2021/08/30 01:50:21;;;;;;;;;;;;;;;19.42;68.62;101839.75;5075279;28;994;-55
2021/08/30 01:52:46;;;;;;;;;;;;;;;19.41;68.75;101839.88;5075553;28;830;-56
2021/08/30 02:00:42;;;;;;;;;;;;;;;19.42;68.00;101839.75;5075201;28;1748;-57
2021/08/30 02:03:05;;;;;;;;;;;;;;;19.41;68.44;101835.34;5075566;28;1890;-58
2021/08/30 02:05:30;;;;;;;;;;;;;;;19.42;68.61;101833.50;5075027;28;1001;-57
2021/08/30 02:07:55;;;;;;;;;;;;;;;19.42;68.59;101830.78;5059165;28;1823;-57
2021/08/30 02:10:20;;;;;;;;;;;;;;;19.41;68.48;101832.63;5074026;28;859;-56
2021/08/30 02:12:45;;;;;;;;;;;;;;;19.39;68.50;101829.22;5075613;28;1158;-58
2021/08/30 02:15:10;;;;;;;;;;;;;;;19.41;69.14;101829.06;5075491;28;1005;-58
2021/08/30 02:17:35;;;;;;;;;;;;;;;19.39;68.53;101822.94;5075433;28;1692;-58
2021/08/30 02:20:01;;;;;;;;;;;;;;;19.38;68.13;101822.09;5075127;28;858;-58
2021/08/30 02:22:26;;;;;;;;;;;;;;;19.38;68.38;101824.78;5075427;28;997;-57
2021/08/30 02:24:51;;;;;;;;;;;;;;;19.38;68.34;101822.09;5065705;28;1922;-57
2021/08/30 02:27:16;;;;;;;;;;;;;;;19.38;67.89;101816.69;5055483;28;1724;-56
2021/08/30 02:29:41;;;;;;;;;;;;;;;19.38;68.34;101807.72;5055768;28;974;-56
2021/08/30 02:32:06;;;;;;;;;;;;;;;19.38;67.89;101813.13;5055235;28;871;-56
2021/08/30 02:34:31;;;;;;;;;;;;;;;19.36;68.70;101807.84;5055322;28;886;-54
2021/08/30 02:36:57;;;;;;;;;;;;;;;19.37;68.93;101817.66;5055087;28;1706;-58
2021/08/30 02:39:22;;;;;;;;;;;;;;;19.36;67.95;101813.25;5055273;28;922;-58
2021/08/30 02:41:47;;;;;;;;;;;;;;;19.36;67.77;101809.69;5055018;28;871;-57
2021/08/30 02:44:12;;;;;;;;;;;;;;;19.35;67.89;101811.53;5072405;28;2062;-57
2021/08/30 02:46:37;;;;;;;;;;;;;;;19.36;68.02;101806.97;5075508;28;1535;-57
2021/08/30 02:49:02;;;;;;;;;;;;;;;19.35;68.40;101818.78;5073432;28;789;-57
2021/08/30 02:51:27;;;;;;;;;;;;;;;19.35;68.09;101806.13;5075182;28;1049;-57
2021/08/30 02:53:52;;;;;;;;;;;;;;;19.34;68.46;101809.84;5075002;28;940;-56
2021/08/30 02:56:17;;;;;;;;;;;;;;;19.35;68.40;101813.38;5074698;28;924;-56
2021/08/30 02:58:43;;;;;;;;;;;;;;;19.35;68.48;101816.09;5075005;28;838;-56
2021/08/30 03:01:08;;;;;;;;;;;;;;;19.33;68.07;101810.84;5064494;28;1741;-56
2021/08/30 03:03:33;;;;;;;;;;;;;;;19.33;67.54;101812.69;5054864;28;1906;-57
2021/08/30 03:05:58;;;;;;;;;;;;;;;19.32;68.38;101806.41;5054677;28;1029;-58
2021/08/30 03:08:23;;;;;;;;;;;;;;;19.32;68.59;101811.81;5055081;28;950;-57
2021/08/30 03:10:48;;;;;;;;;;;;;;;19.32;68.58;101805.56;5055385;28;858;-58
2021/08/30 03:13:13;;;;;;;;;;;;;;;19.32;67.92;101805.56;5054998;28;1359;-58
2021/08/30 03:15:38;;;;;;;;;;;;;;;19.31;68.26;101802.00;5055232;28;1005;-57
2021/08/30 03:18:03;;;;;;;;;;;;;;;19.30;68.31;101794.88;5055647;28;1857;-58
2021/08/30 03:20:28;;;;;;;;;;;;;;;19.31;67.72;101801.16;5074817;28;954;-58
2021/08/30 03:22:53;;;;;;;;;;;;;;;19.31;68.35;101795.75;5074409;28;1056;-59
2021/08/30 03:25:18;;;;;;;;;;;;;;;19.29;68.03;101798.56;5074905;28;1973;-58
2021/08/30 03:27:44;;;;;;;;;;;;;;;19.29;68.31;101797.72;5074460;28;1880;-57
2021/08/30 03:30:09;;;;;;;;;;;;;;;19.29;67.48;101803.13;5074865;28;845;-58
2021/08/30 03:32:34;;;;;;;;;;;;;;;19.29;68.53;101792.31;5075719;28;1060;-59
2021/08/30 03:34:59;;;;;;;;;;;;;;;19.28;68.50;101810.38;5078212;28;850;-57
2021/08/30 03:37:24;;;;;;;;;;;;;;;19.29;67.52;101801.28;5067511;28;1669;-56
2021/08/30 03:39:49;;;;;;;;;;;;;;;19.29;68.30;101816.63;5057748;28;1009;-56
2021/08/30 03:42:14;;;;;;;;;;;;;;;19.28;68.15;101812.22;5058183;28;871;-56
2021/08/30 03:44:39;;;;;;;;;;;;;;;19.28;68.73;101812.22;5058146;28;1960;-57
2021/08/30 03:47:04;;;;;;;;;;;;;;;19.27;67.84;101814.06;5058395;28;965;-57
2021/08/30 03:49:29;;;;;;;;;;;;;;;19.27;68.54;101815.91;5058017;28;1569;-57
2021/08/30 03:51:54;;;;;;;;;;;;;;;19.27;68.11;101813.19;5058330;28;870;-57
2021/08/30 03:54:20;;;;;;;;;;;;;;;19.27;68.52;101813.19;5074464;28;1837;-56
2021/08/30 03:56:45;;;;;;;;;;;;;;;19.28;68.59;101814.91;5077712;28;1076;-58
2021/08/30 03:59:10;;;;;;;;;;;;;;;19.26;68.10;101806.94;5077874;28;965;-59
2021/08/30 04:01:39;;;;;;;;;;;;;;;19.26;68.03;101809.63;5078085;28;810;-59
2021/08/30 04:04:04;;;;;;;;;;;;;;;19.25;67.74;101804.38;5077669;28;1951;-59
2021/08/30 04:06:30;;;;;;;;;;;;;;;19.26;68.47;101811.47;5077007;28;877;-58
2021/08/30 04:08:55;;;;;;;;;;;;;;;19.25;68.41;101799.81;5076907;28;870;-57
2021/08/30 04:11:20;;;;;;;;;;;;;;;19.25;68.21;101804.38;5076167;28;1898;-57
2021/08/30 04:13:46;;;;;;;;;;;;;;;19.25;67.53;101804.38;5076548;28;1798;-58
2021/08/30 04:16:11;;;;;;;;;;;;;;;19.25;68.07;101809.75;5076772;28;896;-58
2021/08/30 04:18:36;;;;;;;;;;;;;;;19.25;68.12;101815.16;5076932;28;1040;-58
2021/08/30 04:21:01;;;;;;;;;;;;;;;19.24;68.60;101813.47;5076707;28;969;-58
2021/08/30 04:23:26;;;;;;;;;;;;;;;19.23;68.66;101806.34;5076566;28;1914;-58
2021/08/30 04:25:51;;;;;;;;;;;;;;;19.23;68.75;101806.34;5076769;28;819;-58
2021/08/30 04:28:16;;;;;;;;;;;;;;;19.23;68.14;101811.75;5076527;28;1621;-57
2021/08/30 04:30:41;;;;;;;;;;;;;;;19.22;68.35;101810.03;5058270;28;1770;-56
2021/08/30 04:33:10;;;;;;;;;;;;;;;19.23;69.05;101806.34;5056273;28;954;-52
2021/08/30 04:35:36;;;;;;;;;;;;;;;19.22;67.61;101810.88;5055498;28;846;-52
2021/08/30 04:38:01;;;;;;;;;;;;;;;19.22;68.23;101816.28;5056789;28;827;-56
2021/08/30 04:40:26;;;;;;;;;;;;;;;19.22;68.34;101812.72;5057269;28;974;-57
2021/08/30 04:42:51;;;;;;;;;;;;;;;19.22;67.99;101810.88;5056799;28;1056;-57
2021/08/30 04:45:16;;;;;;;;;;;;;;;19.21;67.82;101811.88;5057057;28;1889;-57
2021/08/30 04:47:41;;;;;;;;;;;;;;;19.21;68.39;101813.72;5068159;28;1669;-56
2021/08/30 04:50:06;;;;;;;;;;;;;;;19.20;67.84;101812.84;5077225;28;1009;-56
2021/08/30 04:52:31;;;;;;;;;;;;;;;19.20;68.46;101810.16;5076812;28;906;-57
2021/08/30 04:54:56;;;;;;;;;;;;;;;19.19;69.02;101810.28;5076446;28;1056;-58
2021/08/30 04:57:22;;;;;;;;;;;;;;;19.19;68.54;101808.44;5077012;28;989;-58
2021/08/30 04:59:47;;;;;;;;;;;;;;;19.18;67.93;101809.44;5076534;28;1781;-57
2021/08/30 05:02:12;;;;;;;;;;;;;;;19.19;69.73;101811.13;5057190;28;1544;-56
2021/08/30 05:04:37;;;;;;;;;;;;;;;19.20;69.51;101817.41;5036925;28;1901;-57
2021/08/30 05:07:02;;;;;;;;;;;;;;;19.21;69.36;101819.13;5054151;28;1898;-59
2021/08/30 05:09:27;;;;;;;;;;;;;;;19.22;68.49;101815.44;5076802;28;890;-58
2021/08/30 05:11:52;;;;;;;;;;;;;;;19.22;69.19;101819.00;5076779;28;1155;-57
2021/08/30 05:14:18;;;;;;;;;;;;;;;19.22;69.63;101818.13;5076349;28;992;-57
2021/08/30 05:16:43;;;;;;;;;;;;;;;19.24;69.97;101826.97;5068836;28;1785;-57
2021/08/30 05:19:08;;;;;;;;;;;;;;;19.27;71.52;101824.88;5055710;28;1850;-56
2021/08/30 05:21:33;;;;;;;;;;;;;;;19.30;70.63;101830.00;5050892;28;1631;-52
2021/08/30 05:23:58;;;;;;;;;;;;;;;19.32;70.26;101827.19;5053854;28;1905;-55
2021/08/30 05:26:23;;;;;;;;;;;;;;;19.30;69.95;101829.16;5051897;28;1653;-56
2021/08/30 05:28:48;;;;;;;;;;;;;;;19.28;72.34;101837.41;5048448;28;1630;-56
2021/08/30 05:31:14;;;;;;;;;;;;;;;19.30;71.95;101838.13;5055508;28;1767;-56
2021/08/30 05:33:39;;;;;;;;;;;;;;;19.30;70.29;101839.97;5055661;28;1676;-55
2021/08/30 05:36:04;;;;;;;;;;;;;;;19.30;71.26;101835.41;5053854;28;1591;-55
2021/08/30 05:38:31;;;;;;;;;;;;;;;19.28;70.96;101841.94;5054477;28;1515;-55
2021/08/30 05:40:56;;;;;;;;;;;;;;;19.27;70.31;101841.09;5054364;28;1609;-56
2021/08/30 05:43:21;;;;;;;;;;;;;;;19.26;70.16;101857.44;5055759;28;1898;-56
2021/08/30 05:45:46;;;;;;;;;;;;;;;19.26;70.90;101849.31;5053938;28;1724;-56
2021/08/30 05:48:11;;;;;;;;;;;;;;;19.25;69.96;101842.19;5054961;28;1791;-55
2021/08/30 05:50:36;;;;;;;;;;;;;;;19.23;70.49;101842.31;5054915;28;1642;-55
2021/08/30 05:53:01;;;;;;;;;;;;;;;19.23;70.23;101847.72;5069311;28;1761;-54
2021/08/30 05:55:26;;;;;;;;;;;;;;;19.24;69.92;101843.19;5061676;28;1663;-56
2021/08/30 05:57:51;;;;;;;;;;;;;;;19.23;69.83;101846.88;5055698;28;907;-56
2021/08/30 06:00:17;;;;;;;;;;;;;;;19.22;70.58;101854.13;5055565;28;787;-55
2021/08/30 06:02:42;;;;;;;;;;;;;;;19.22;69.91;101854.13;5055164;28;799;-56
2021/08/30 06:05:07;;;;;;;;;;;;;;;19.21;69.82;101841.59;5053820;28;1947;-54
2021/08/30 06:07:32;;;;;;;;;;;;;;;19.21;69.89;101840.75;5055481;28;1886;-55
2021/08/30 06:09:57;;;;;;;;;;;;;;;19.21;69.58;101841.59;5055021;28;854;-54
2021/08/30 06:12:22;;;;;;;;;;;;;;;19.22;70.87;101837.06;5054120;28;1361;-56
2021/08/30 06:14:47;;;;;;;;;;;;;;;19.22;70.05;101840.63;5055459;28;945;-53
2021/08/30 06:17:12;;;;;;;;;;;;;;;19.22;70.53;101842.47;5055808;28;1627;-56
2021/08/30 06:19:37;;;;;;;;;;;;;;;19.21;70.32;101846.16;5055490;28;926;-54
2021/08/30 06:22:03;;;;;;;;;;;;;;;19.22;70.44;101845.16;5055509;28;1009;-55
2021/08/30 06:24:28;;;;;;;;;;;;;;;19.21;70.87;101854.25;5067685;28;1961;-52
2021/08/30 06:26:54;;;;;;;;;;;;;;;19.22;70.60;101855.97;5074697;28;1792;-55
2021/08/30 06:29:19;;;;;;;;;;;;;;;19.21;69.90;101836.19;5075412;28;858;-56
2021/08/30 06:31:44;;;;;;;;;;;;;;;19.20;70.50;101849.84;5075309;28;997;-55
2021/08/30 06:34:09;;;;;;;;;;;;;;;19.20;69.85;101849.84;5074918;28;1805;-53
2021/08/30 06:36:34;;;;;;;;;;;;;;;19.20;69.98;101852.53;5075388;28;953;-54
2021/08/30 06:39:00;;;;;;;;;;;;;;;19.19;69.65;101854.38;5074863;28;1002;-55
2021/08/30 06:41:25;;;;;;;;;;;;;;;19.19;69.66;101856.22;5072885;28;2017;-52
2021/08/30 06:43:51;;;;;;;;;;;;;;;19.20;69.84;101855.25;5054911;28;1890;-55
2021/08/30 06:46:16;;;;;;;;;;;;;;;19.20;69.31;101863.34;5054636;28;1064;-53
2021/08/30 06:48:41;;;;;;;;;;;;;;;19.20;69.65;101860.66;5053641;28;1405;-55
2021/08/30 06:51:06;;;;;;;;;;;;;;;19.19;70.17;101865.19;5054794;28;1764;-53
2021/08/30 06:53:31;;;;;;;;;;;;;;;19.18;70.27;101866.19;5055385;28;1702;-55
2021/08/30 06:55:56;;;;;;;;;;;;;;;19.19;70.27;101861.63;5055081;28;922;-54
2021/08/30 06:58:21;;;;;;;;;;;;;;;19.19;70.14;101869.72;5055204;28;989;-55
2021/08/30 07:00:46;;;;;;;;;;;;;;;19.19;70.35;101869.72;5069335;28;1787;-56
2021/08/30 07:03:11;;;;;;;;;;;;;;;19.16;70.33;101860.06;5061514;28;1894;-56
2021/08/30 07:05:36;;;;;;;;;;;;;;;19.17;70.21;101860.94;5056606;28;1585;-55
2021/08/30 07:08:01;;;;;;;;;;;;;;;19.18;71.14;101862.63;5058019;28;1648;-56
2021/08/30 07:10:26;;;;;;;;;;;;;;;19.17;70.62;101871.75;5071188;28;1445;-56
2021/08/30 07:12:51;;;;;;;;;;;;;;;19.17;69.93;101877.16;5066239;28;1567;-54
2021/08/30 07:15:17;;;;;;;;;;;;;;;19.17;70.62;101871.75;5048839;28;1420;-55
2021/08/30 07:17:42;;;;;;;;;;;;;;;19.15;70.23;101874.56;5065621;28;1519;-56
2021/08/30 07:20:07;;;;;;;;;;;;;;;19.14;71.10;101872.00;5074071;28;1444;-56
2021/08/30 07:22:32;;;;;;;;;;;;;;;19.14;70.68;101872.00;5054777;28;1467;-55
2021/08/30 07:24:57;;;;;;;;;;;;;;;19.14;70.12;101872.84;5050158;28;1965;-57
2021/08/30 07:27:22;;;;;;;;;;;;;;;19.16;70.50;101870.03;5068811;28;1815;-56
2021/08/30 07:29:50;;;;;;;;;;;;;;;19.15;69.95;101879.97;5076635;28;1963;-57
2021/08/30 07:32:15;;;;;;;;;;;;;;;19.15;70.18;101882.69;5078557;28;849;-53
2021/08/30 07:34:40;;;;;;;;;;;;;;;19.15;70.07;101885.38;5078138;28;843;-56
2021/08/30 07:37:05;;;;;;;;;;;;;;;19.15;70.81;101884.53;5077611;28;1842;-56
2021/08/30 07:39:30;;;;;;;;;;;;;;;19.14;70.27;101883.66;5057100;28;1741;-56
2021/08/30 07:41:55;;;;;;;;;;;;;;;19.16;70.69;101889.81;5058573;28;1660;-56
2021/08/30 07:44:21;;;;;;;;;;;;;;;19.17;70.58;101883.38;5064323;28;1902;-54
2021/08/30 07:46:46;;;;;;;;;;;;;;;19.18;70.68;101889.63;5066721;28;1566;-53
2021/08/30 07:49:12;;;;;;;;;;;;;;;19.18;70.14;101892.34;5040586;28;1710;-56
2021/08/30 07:51:38;;;;;;;;;;;;;;;19.20;71.02;101893.06;5038243;28;1445;-56
2021/08/30 07:54:04;;;;;;;;;;;;;;;19.19;70.74;101888.66;5038818;28;889;-57
2021/08/30 07:56:29;;;;;;;;;;;;;;;19.19;70.74;101892.22;5038074;28;1179;-55
2021/08/30 07:58:54;;;;;;;;;;;;;;;19.19;70.67;101900.31;5075999;28;2027;-56
2021/08/30 08:01:19;;;;;;;;;;;;;;;19.19;70.79;101897.63;5078029;28;1527;-53
2021/08/30 08:03:44;;;;;;;;;;;;;;;19.21;70.80;101905.59;5077420;28;1961;-53
2021/08/30 08:06:09;;;;;;;;;;;;;;;19.20;71.04;101912.00;5077764;28;835;-54
2021/08/30 08:08:34;;;;;;;;;;;;;;;19.20;70.63;101903.88;5078033;28;1069;-55
2021/08/30 08:10:59;;;;;;;;;;;;;;;19.21;70.16;101916.41;5077610;28;1124;-55
2021/08/30 08:13:26;;;;;;;;;;;;;;;19.20;70.06;101906.59;5075592;28;1821;-56
2021/08/30 08:15:52;;;;;;;;;;;;;;;19.19;70.52;101905.72;5077324;28;1781;-56
2021/08/30 08:18:17;;;;;;;;;;;;;;;19.20;71.29;101917.41;5077548;28;819;-57
2021/08/30 08:20:42;;;;;;;;;;;;;;;19.23;70.57;101903.63;5075861;28;982;-55
2021/08/30 08:23:07;;;;;;;;;;;;;;;19.23;70.79;101912.59;5077749;28;1906;-56
2021/08/30 08:25:32;;;;;;;;;;;;;;;19.23;70.50;101903.63;5077768;28;835;-55
2021/08/30 08:28:01;;;;;;;;;;;;;;;19.21;70.87;101901.06;5077477;28;815;-56
2021/08/30 08:30:26;;;;;;;;;;;;;;;19.22;70.88;101905.47;5077566;28;783;-57
2021/08/30 08:32:51;;;;;;;;;;;;;;;19.22;70.86;101901.91;5057870;28;1722;-56
2021/08/30 08:35:16;;;;;;;;;;;;;;;19.25;71.46;101904.34;5057410;28;1072;-56
2021/08/30 08:37:41;;;;;;;;;;;;;;;19.23;70.27;101901.78;5056846;28;841;-55
2021/08/30 08:40:06;;;;;;;;;;;;;;;19.23;70.05;101904.50;5056754;28;843;-54
2021/08/30 08:42:31;;;;;;;;;;;;;;;19.22;71.00;101912.72;5057531;28;772;-55
2021/08/30 08:44:56;;;;;;;;;;;;;;;19.23;70.41;101914.44;5057074;28;1875;-55
2021/08/30 08:47:23;;;;;;;;;;;;;;;19.22;70.79;101913.56;5057088;28;933;-55
2021/08/30 08:49:51;;;;;;;;;;;;;;;19.22;70.92;101913.56;5065271;28;1747;-53
2021/08/30 08:52:16;;;;;;;;;;;;;;;19.21;70.14;101905.59;5075951;28;1868;-54
2021/08/30 08:54:41;;;;;;;;;;;;;;;19.22;70.19;101901.91;5047197;28;1330;-52
2021/08/30 08:57:06;;;;;;;;;;;;;;;19.22;70.89;101905.47;5045609;28;1393;-55
2021/08/30 08:59:31;;;;;;;;;;;;;;;19.22;71.40;101910.03;5045114;28;1387;-55
2021/08/30 09:01:57;;;;;;;;;;;;;;;19.22;71.27;101910.88;5043873;28;1429;-56
2021/08/30 09:04:22;;;;;;;;;;;;;;;19.24;71.05;101905.34;5051591;28;1949;-54
2021/08/30 09:06:48;;;;;;;;;;;;;;;19.24;70.27;101899.94;5056412;28;993;-56
2021/08/30 09:09:14;;;;;;;;;;;;;;;19.26;70.70;101903.38;5075925;28;1878;-56
2021/08/30 09:11:40;;;;;;;;;;;;;;;19.26;70.38;101896.13;5051273;28;2019;-52
2021/08/30 09:14:05;;;;;;;;;;;;;;;19.27;70.94;101900.53;5056543;28;842;-55
2021/08/30 09:16:30;;;;;;;;;;;;;;;19.29;71.10;101908.53;5055041;28;1406;-57
2021/08/30 09:18:55;;;;;;;;;;;;;;;19.28;70.79;101902.25;5056480;28;1009;-56
2021/08/30 09:21:20;;;;;;;;;;;;;;;19.28;70.85;101906.81;5056315;28;914;-54
2021/08/30 09:23:45;;;;;;;;;;;;;;;19.28;71.51;101906.81;5056597;28;1967;-55
2021/08/30 09:26:10;;;;;;;;;;;;;;;19.29;70.65;101906.69;5067221;28;1819;-56
2021/08/30 09:28:38;;;;;;;;;;;;;;;19.29;70.31;101897.72;5074367;28;1317;-55
2021/08/30 09:31:03;;;;;;;;;;;;;;;19.31;70.61;101903.84;5044019;28;1406;-56
2021/08/30 09:33:28;;;;;;;;;;;;;;;19.30;71.19;101905.69;5046301;28;1425;-56
2021/08/30 09:35:53;;;;;;;;;;;;;;;19.31;70.46;101912.81;5046589;28;1487;-55
2021/08/30 09:38:19;;;;;;;;;;;;;;;19.33;71.18;101904.59;5049536;28;1647;-54
2021/08/30 09:40:44;;;;;;;;;;;;;;;19.35;71.45;101897.16;5071552;28;1616;-55
2021/08/30 09:43:09;;;;;;;;;;;;;;;19.38;71.55;101892.38;5074754;28;1887;-54
2021/08/30 09:45:34;;;;;;;;;;;;;;;19.39;71.53;101899.50;5074864;28;1897;-53
2021/08/30 09:47:59;;;;;;;;;;;;;;;19.41;72.01;101899.38;5066578;28;1902;-54
2021/08/30 09:50:24;;;;;;;;;;;;;;;19.40;72.04;101900.34;5047437;28;1646;-55
2021/08/30 09:52:49;;;;;;;;;;;;;;;19.41;72.18;101896.66;5052826;28;1354;-52
2021/08/30 09:55:14;;;;;;;;;;;;;;;19.41;72.06;101896.66;5074831;28;1718;-55
2021/08/30 09:57:40;;;;;;;;;;;;;;;19.41;72.12;101902.91;5073895;28;1660;-56
2021/08/30 10:00:06;;;;;;;;;;;;;;;19.42;71.47;101895.66;5075892;28;854;-55
2021/08/30 10:02:31;;;;;;;;;;;;;;;19.42;71.75;101904.63;5075093;28;1824;-55
2021/08/30 10:04:59;;;;;;;;;;;;;;;19.42;71.55;101904.63;5075601;28;1918;-53
2021/08/30 10:07:24;;;;;;;;;;;;;;;19.42;71.62;101896.53;5074729;28;1542;-54
2021/08/30 10:09:49;;;;;;;;;;;;;;;19.42;71.28;101898.38;5066671;28;1729;-54
2021/08/30 10:12:14;;;;;;;;;;;;;;;19.43;72.18;101898.25;5055222;28;1491;-55
2021/08/30 10:14:39;;;;;;;;;;;;;;;19.42;71.09;101893.81;5055602;28;934;-55
2021/08/30 10:17:04;;;;;;;;;;;;;;;19.43;71.89;101897.38;5055443;28;1516;-56
2021/08/30 10:19:29;;;;;;;;;;;;;;;19.44;70.91;101896.41;5056244;28;1949;-55
2021/08/30 10:21:55;;;;;;;;;;;;;;;19.42;71.59;101890.25;5055569;28;914;-55
2021/08/30 10:24:20;;;;;;;;;;;;;;;19.43;71.54;101889.28;5054844;28;1906;-55
2021/08/30 10:26:45;;;;;;;;;;;;;;;19.42;71.27;101888.41;5055779;28;1570;-54
2021/08/30 10:29:13;;;;;;;;;;;;;;;19.43;71.72;101889.28;5067520;28;1545;-53
2021/08/30 10:31:38;;;;;;;;;;;;;;;19.42;72.17;101891.13;5055362;28;1632;-55
2021/08/30 10:34:03;;;;;;;;;;;;;;;19.43;71.43;101895.53;5055219;28;1874;-53
2021/08/30 10:36:28;;;;;;;;;;;;;;;19.46;71.81;101893.56;5062969;28;1820;-52
2021/08/30 10:38:54;;;;;;;;;;;;;;;19.47;71.79;101901.56;5055302;28;1808;-54
2021/08/30 10:41:19;;;;;;;;;;;;;;;19.46;71.75;101897.13;5060817;28;1823;-54
2021/08/30 10:43:44;;;;;;;;;;;;;;;19.45;71.39;101892.72;5075160;28;1893;-55
2021/08/30 10:46:09;;;;;;;;;;;;;;;19.45;71.34;101898.13;5061971;28;1492;-54
2021/08/30 10:48:34;;;;;;;;;;;;;;;19.46;71.83;101898.97;5054387;28;906;-55
2021/08/30 10:50:59;;;;;;;;;;;;;;;19.48;71.14;101889.75;5054325;28;1878;-56
2021/08/30 10:53:24;;;;;;;;;;;;;;;19.50;71.03;101887.81;5047772;28;1573;-56
2021/08/30 10:55:49;;;;;;;;;;;;;;;19.50;71.52;101890.50;5059986;28;1607;-55
2021/08/30 10:58:15;;;;;;;;;;;;;;;19.53;71.16;101897.47;5065433;28;1781;-56
2021/08/30 11:00:40;;;;;;;;;;;;;;;19.53;71.33;101901.03;5068141;28;1658;-56
2021/08/30 11:03:05;;;;;;;;;;;;;;;19.55;71.82;101892.78;5053477;28;1507;-55
2021/08/30 11:05:30;;;;;;;;;;;;;;;19.59;71.99;101887.00;5052857;28;1959;-57
2021/08/30 11:07:55;;;;;;;;;;;;;;;19.65;72.94;101893.72;5053852;28;1841;-55
2021/08/30 11:10:22;;;;;;;;;;;;;;;19.64;72.04;101887.47;5055096;28;1807;-56
2021/08/30 11:12:47;;;;;;;;;;;;;;;19.64;73.32;101882.06;5068706;28;1679;-56
2021/08/30 11:15:12;;;;;;;;;;;;;;;19.64;72.68;101887.47;5057642;28;1885;-57
2021/08/30 11:17:37;;;;;;;;;;;;;;;19.66;72.34;101881.94;5053670;28;1945;-56
2021/08/30 11:20:02;;;;;;;;;;;;;;;19.66;72.83;101880.09;5054718;28;1811;-55
2021/08/30 11:22:27;;;;;;;;;;;;;;;19.68;72.73;101878.09;5065177;28;1599;-56
2021/08/30 11:24:52;;;;;;;;;;;;;;;19.67;73.28;101887.22;5059302;28;1910;-55
2021/08/30 11:27:20;;;;;;;;;;;;;;;19.68;73.90;101891.63;5053835;28;1833;-56
2021/08/30 11:29:45;;;;;;;;;;;;;;;19.74;73.27;101893.78;5062144;28;1696;-56
2021/08/30 11:32:10;;;;;;;;;;;;;;;19.72;73.88;101884.94;5054848;28;1718;-55
2021/08/30 11:34:36;;;;;;;;;;;;;;;19.89;73.52;101888.88;5060794;28;1790;-59
2021/08/30 11:37:02;;;;;;;;;;;;;;;19.89;73.25;101888.00;5054188;28;1813;-59
2021/08/30 11:39:27;;;;;;;;;;;;;;;19.89;73.19;101879.91;5053991;28;1719;-58
2021/08/30 11:41:52;;;;;;;;;;;;;;;19.87;72.87;101887.31;5057790;28;1664;-58
2021/08/30 11:44:17;;;;;;;;;;;;;;;19.86;73.63;101888.31;5055409;28;1953;-58
2021/08/30 11:46:42;;;;;;;;;;;;;;;19.84;73.48;101884.88;5066463;28;1760;-58
2021/08/30 11:49:07;;;;;;;;;;;;;;;19.83;73.60;101892.13;5054136;28;1595;-58
2021/08/30 11:51:32;;;;;;;;;;;;;;;19.83;73.84;101886.72;5054546;28;906;-58
2021/08/30 11:53:57;;;;;;;;;;;;;;;19.84;73.47;101887.59;5055387;28;1775;-57
2021/08/30 11:56:22;;;;;;;;;;;;;;;19.88;73.69;101891.75;5067427;28;2354;-58
2021/08/30 11:58:47;;;;;;;;;;;;;;;20.11;73.45;101901.38;5062848;28;1710;-58
2021/08/30 12:01:12;;;;;;;;;;;;;;;21.00;70.58;101886.09;5064384;28;1639;-59
2021/08/30 12:03:37;;;;;;;;;;;;;;;20.51;71.36;101890.59;5061257;28;1924;-60
2021/08/30 12:06:02;;;;;;;;;;;;;;;20.23;72.33;101894.03;5048155;28;1674;-58
2021/08/30 12:08:32;;;;;;;;;;;;;;;20.11;72.88;101890.56;5061311;28;1625;-58
2021/08/30 12:10:57;;;;;;;;;;;;;;;20.04;72.77;101892.09;5053292;28;1806;-59
2021/08/30 12:15:50;;;;;;;;;;;;;;;19.99;73.26;101880.81;5074112;28;1663;-58
2021/08/30 12:18:15;;;;;;;;;;;;;;;19.96;72.71;101887.34;5074162;28;1691;-58
2021/08/30 12:20:44;;;;;;;;;;;;;;;19.95;73.12;101882.94;5052060;28;1794;-57
2021/08/30 12:23:10;;;;;;;;;;;;;;;19.98;73.29;101885.38;5060910;28;1708;-58
2021/08/30 12:25:38;;;;;;;;;;;;;;;19.97;72.69;101890.91;5057440;28;1985;-58
2021/08/30 12:28:03;;;;;;;;;;;;;;;19.99;72.08;101886.22;5051468;28;1797;-58
2021/08/30 12:30:28;;;;;;;;;;;;;;;20.00;72.52;101886.09;5039762;28;1647;-58
2021/08/30 12:32:53;;;;;;;;;;;;;;;20.00;72.67;101883.41;5037338;28;893;-57
2021/08/30 12:35:23;;;;;;;;;;;;;;;20.00;72.01;101875.28;5037416;28;850;-58
2021/08/30 12:37:49;;;;;;;;;;;;;;;20.00;72.85;101879.84;5046206;28;1550;-56
2021/08/30 12:40:14;;;;;;;;;;;;;;;20.01;71.97;101881.53;5054141;28;1212;-58
2021/08/30 12:42:39;;;;;;;;;;;;;;;19.99;71.89;101880.81;5056652;28;1069;-58
2021/08/30 12:45:04;;;;;;;;;;;;;;;19.98;72.16;101879.97;5057083;28;1898;-59
2021/08/30 12:47:29;;;;;;;;;;;;;;;19.98;72.64;101879.09;5057333;28;1842;-58